Terminal Aerodrome Forecast
Issued by NWS

Home | Current Version | Previous Version | Graphics & Text | Print | Product List | Glossary On
Versions: 1 2 3 4 5 6 7 8 9 10 11 12 13 14 15 16 17 18 19 20
000
FTUS43 KICT 141144 CCA
TAFSLN
TAF COR
KSLN 141144Z 1412/1512 15007KT P6SM VCTS SCT008 BKN100CB
      TEMPO 1412/1413 VRB15G25KT 1SM TSRA BKN025CB
     FM141600 18012G20KT P6SM BKN080
     FM141800 19020G30KT P6SM BKN090
     FM142100 30020G30KT P6SM BKN090
     FM150200 33028G38KT P6SM SCT250
     FM150900 33015G25KT P6SM FEW200=

USA.gov is the U.S. government's official web portal to all federal, state and local government web resources and services.